sensor_id;sensor_type;location;lat;lon;timestamp;temperature;humidity
78366;HTU21D;67641;59.864;30.464;2023-07-29T00:01:13;27.04;21.84
78366;HTU21D;67641;59.864;30.464;2023-07-29T00:03:40;27.06;22.74
78366;HTU21D;67641;59.864;30.464;2023-07-29T00:06:07;27.07;22.39
78366;HTU21D;67641;59.864;30.464;2023-07-29T00:09:51;27.06;22.08
78366;HTU21D;67641;59.864;30.464;2023-07-29T00:12:17;26.99;21.89
78366;HTU21D;67641;59.864;30.464;2023-07-29T00:14:44;26.96;22.31
78366;HTU21D;67641;59.864;30.464;2023-07-29T00:17:10;26.97;23.43
78366;HTU21D;67641;59.864;30.464;2023-07-29T00:19:37;26.92;23.71
78366;HTU21D;67641;59.864;30.464;2023-07-29T00:22:04;26.86;24.44
78366;HTU21D;67641;59.864;30.464;2023-07-29T00:24:30;26.85;22.23
78366;HTU21D;67641;59.864;30.464;2023-07-29T00:26:57;26.86;21.48
78366;HTU21D;67641;59.864;30.464;2023-07-29T00:29:41;26.86;23.21
78366;HTU21D;67641;59.864;30.464;2023-07-29T00:32:07;26.81;23.58
78366;HTU21D;67641;59.864;30.464;2023-07-29T00:34:34;26.79;21.97
78366;HTU21D;67641;59.864;30.464;2023-07-29T00:37:00;26.82;21.65
78366;HTU21D;67641;59.864;30.464;2023-07-29T00:39:27;26.83;22.94
78366;HTU21D;67641;59.864;30.464;2023-07-29T00:41:53;26.81;23.80
78366;HTU21D;67641;59.864;30.464;2023-07-29T00:44:20;26.76;23.22
78366;HTU21D;67641;59.864;30.464;2023-07-29T00:46:47;26.63;22.45
78366;HTU21D;67641;59.864;30.464;2023-07-29T00:51:03;26.69;23.12
78366;HTU21D;67641;59.864;30.464;2023-07-29T00:53:30;26.69;23.82
78366;HTU21D;67641;59.864;30.464;2023-07-29T00:55:56;26.65;23.94
78366;HTU21D;67641;59.864;30.464;2023-07-29T00:58:22;26.61;23.88
78366;HTU21D;67641;59.864;30.464;2023-07-29T01:00:50;26.60;22.97
78366;HTU21D;67641;59.864;30.464;2023-07-29T01:03:17;26.57;23.14
78366;HTU21D;67641;59.864;30.464;2023-07-29T01:06:07;26.51;23.21
78366;HTU21D;67641;59.864;30.464;2023-07-29T01:16:53;26.45;20.89
78366;HTU21D;67641;59.864;30.464;2023-07-29T01:20:19;26.45;22.39
78366;HTU21D;67641;59.864;30.464;2023-07-29T01:22:27;26.46;22.47
78366;HTU21D;67641;59.864;30.464;2023-07-29T01:24:54;26.47;20.95
78366;HTU21D;67641;59.864;30.464;2023-07-29T01:27:20;26.48;22.31
78366;HTU21D;67641;59.864;30.464;2023-07-29T01:35:45;26.34;23.01
78366;HTU21D;67641;59.864;30.464;2023-07-29T01:38:22;26.34;22.51
78366;HTU21D;67641;59.864;30.464;2023-07-29T01:40:51;26.20;22.45
78366;HTU21D;67641;59.864;30.464;2023-07-29T01:43:18;26.12;22.80
78366;HTU21D;67641;59.864;30.464;2023-07-29T01:45:49;26.16;22.34
78366;HTU21D;67641;59.864;30.464;2023-07-29T01:48:15;26.17;23.21
78366;HTU21D;67641;59.864;30.464;2023-07-29T01:50:42;26.12;23.14
78366;HTU21D;67641;59.864;30.464;2023-07-29T01:54:34;26.12;22.94
78366;HTU21D;67641;59.864;30.464;2023-07-29T01:57:01;26.11;23.45
78366;HTU21D;67641;59.864;30.464;2023-07-29T01:59:27;26.05;23.28
78366;HTU21D;67641;59.864;30.464;2023-07-29T02:01:53;25.96;23.92
78366;HTU21D;67641;59.864;30.464;2023-07-29T02:04:20;26.01;24.27
78366;HTU21D;67641;59.864;30.464;2023-07-29T02:06:46;25.95;25.40
78366;HTU21D;67641;59.864;30.464;2023-07-29T02:09:12;25.96;25.36
78366;HTU21D;67641;59.864;30.464;2023-07-29T02:14:26;25.89;25.85
78366;HTU21D;67641;59.864;30.464;2023-07-29T02:16:52;25.87;25.45
78366;HTU21D;67641;59.864;30.464;2023-07-29T02:19:19;25.87;25.73
78366;HTU21D;67641;59.864;30.464;2023-07-29T02:21:45;25.90;26.09
78366;HTU21D;67641;59.864;30.464;2023-07-29T02:24:11;25.90;26.30
78366;HTU21D;67641;59.864;30.464;2023-07-29T02:26:38;25.90;26.59
78366;HTU21D;67641;59.864;30.464;2023-07-29T02:29:04;25.86;27.37
78366;HTU21D;67641;59.864;30.464;2023-07-29T02:31:31;25.77;27.83
78366;HTU21D;67641;59.864;30.464;2023-07-29T02:35:48;25.75;28.48
78366;HTU21D;67641;59.864;30.464;2023-07-29T02:38:15;25.77;28.26
78366;HTU21D;67641;59.864;30.464;2023-07-29T02:40:41;25.75;28.92
78366;HTU21D;67641;59.864;30.464;2023-07-29T02:43:07;25.66;29.55
78366;HTU21D;67641;59.864;30.464;2023-07-29T02:45:34;25.60;30.37
78366;HTU21D;67641;59.864;30.464;2023-07-29T02:48:00;25.66;31.53
78366;HTU21D;67641;59.864;30.464;2023-07-29T02:50:26;25.64;31.43
78366;HTU21D;67641;59.864;30.464;2023-07-29T02:52:52;25.64;31.66
78366;HTU21D;67641;59.864;30.464;2023-07-29T02:57:24;25.66;31.07
78366;HTU21D;67641;59.864;30.464;2023-07-29T02:59:51;25.63;31.03
78366;HTU21D;67641;59.864;30.464;2023-07-29T03:02:17;25.65;31.02
78366;HTU21D;67641;59.864;30.464;2023-07-29T03:04:43;25.68;30.80
78366;HTU21D;67641;59.864;30.464;2023-07-29T03:07:09;25.66;31.06
78366;HTU21D;67641;59.864;30.464;2023-07-29T03:09:36;25.65;31.38
78366;HTU21D;67641;59.864;30.464;2023-07-29T03:12:02;25.64;31.39
78366;HTU21D;67641;59.864;30.464;2023-07-29T03:14:29;25.56;31.48
78366;HTU21D;67641;59.864;30.464;2023-07-29T03:18:16;25.53;31.15
78366;HTU21D;67641;59.864;30.464;2023-07-29T03:20:43;25.61;31.28
78366;HTU21D;67641;59.864;30.464;2023-07-29T03:23:09;25.64;30.90
78366;HTU21D;67641;59.864;30.464;2023-07-29T03:25:35;25.65;30.45
78366;HTU21D;67641;59.864;30.464;2023-07-29T03:28:02;25.61;30.29
78366;HTU21D;67641;59.864;30.464;2023-07-29T03:30:29;25.59;30.88
78366;HTU21D;67641;59.864;30.464;2023-07-29T03:32:55;25.62;29.24
78366;HTU21D;67641;59.864;30.464;2023-07-29T03:35:21;25.61;29.23
78366;HTU21D;67641;59.864;30.464;2023-07-29T03:39:37;25.67;28.16
78366;HTU21D;67641;59.864;30.464;2023-07-29T03:42:04;25.71;29.19
78366;HTU21D;67641;59.864;30.464;2023-07-29T03:44:31;25.71;28.26
78366;HTU21D;67641;59.864;30.464;2023-07-29T03:46:57;25.76;28.62
78366;HTU21D;67641;59.864;30.464;2023-07-29T03:49:24;25.83;27.59
78366;HTU21D;67641;59.864;30.464;2023-07-29T03:51:50;25.87;28.60
78366;HTU21D;67641;59.864;30.464;2023-07-29T03:54:16;25.90;28.80
78366;HTU21D;67641;59.864;30.464;2023-07-29T03:56:43;25.97;28.56
78366;HTU21D;67641;59.864;30.464;2023-07-29T04:01:01;26.05;27.42
78366;HTU21D;67641;59.864;30.464;2023-07-29T04:03:27;26.06;28.58
78366;HTU21D;67641;59.864;30.464;2023-07-29T04:05:53;26.11;27.23
78366;HTU21D;67641;59.864;30.464;2023-07-29T04:08:20;26.11;26.07
78366;HTU21D;67641;59.864;30.464;2023-07-29T04:10:46;26.15;25.59
78366;HTU21D;67641;59.864;30.464;2023-07-29T04:13:13;26.20;23.49
78366;HTU21D;67641;59.864;30.464;2023-07-29T04:15:40;26.23;24.61
78366;HTU21D;67641;59.864;30.464;2023-07-29T04:18:06;26.28;26.32
78366;HTU21D;67641;59.864;30.464;2023-07-29T04:22:37;26.34;27.22
78366;HTU21D;67641;59.864;30.464;2023-07-29T04:25:05;26.37;27.70
78366;HTU21D;67641;59.864;30.464;2023-07-29T04:27:31;26.37;27.56
78366;HTU21D;67641;59.864;30.464;2023-07-29T04:29:58;26.40;27.04
78366;HTU21D;67641;59.864;30.464;2023-07-29T04:32:24;26.46;27.03
78366;HTU21D;67641;59.864;30.464;2023-07-29T04:34:51;26.51;27.78
78366;HTU21D;67641;59.864;30.464;2023-07-29T04:37:17;26.58;27.43
78366;HTU21D;67641;59.864;30.464;2023-07-29T04:39:44;26.65;27.69
78366;HTU21D;67641;59.864;30.464;2023-07-29T04:44:16;26.77;28.36
78366;HTU21D;67641;59.864;30.464;2023-07-29T04:46:43;26.80;28.29
78366;HTU21D;67641;59.864;30.464;2023-07-29T04:49:09;26.84;28.29
78366;HTU21D;67641;59.864;30.464;2023-07-29T04:51:35;26.84;29.89
78366;HTU21D;67641;59.864;30.464;2023-07-29T04:54:03;26.86;29.84
78366;HTU21D;67641;59.864;30.464;2023-07-29T04:56:30;26.84;29.49
78366;HTU21D;67641;59.864;30.464;2023-07-29T04:58:56;26.77;30.57
78366;HTU21D;67641;59.864;30.464;2023-07-29T05:04:02;26.83;30.10
78366;HTU21D;67641;59.864;30.464;2023-07-29T05:06:28;26.89;29.73
78366;HTU21D;67641;59.864;30.464;2023-07-29T05:08:57;26.94;29.22
78366;HTU21D;67641;59.864;30.464;2023-07-29T05:11:23;26.99;28.86
78366;HTU21D;67641;59.864;30.464;2023-07-29T05:13:51;27.05;29.98
78366;HTU21D;67641;59.864;30.464;2023-07-29T05:16:17;27.09;28.90
78366;HTU21D;67641;59.864;30.464;2023-07-29T05:18:44;27.09;28.31
78366;HTU21D;67641;59.864;30.464;2023-07-29T05:21:10;27.11;28.11
78366;HTU21D;67641;59.864;30.464;2023-07-29T05:26:09;27.09;29.32
78366;HTU21D;67641;59.864;30.464;2023-07-29T05:28:36;27.09;31.61
78366;HTU21D;67641;59.864;30.464;2023-07-29T05:31:02;27.05;33.31
78366;HTU21D;67641;59.864;30.464;2023-07-29T05:33:29;27.02;34.65
78366;HTU21D;67641;59.864;30.464;2023-07-29T05:35:55;26.96;35.08
78366;HTU21D;67641;59.864;30.464;2023-07-29T05:38:22;26.95;36.06
78366;HTU21D;67641;59.864;30.464;2023-07-29T05:40:49;27.01;36.04
78366;HTU21D;67641;59.864;30.464;2023-07-29T05:43:32;27.06;36.89
78366;HTU21D;67641;59.864;30.464;2023-07-29T05:48:14;27.11;37.38
78366;HTU21D;67641;59.864;30.464;2023-07-29T05:50:42;27.12;38.11
78366;HTU21D;67641;59.864;30.464;2023-07-29T05:53:12;27.12;38.82
78366;HTU21D;67641;59.864;30.464;2023-07-29T05:55:39;27.15;39.30
78366;HTU21D;67641;59.864;30.464;2023-07-29T05:58:10;27.15;39.23
78366;HTU21D;67641;59.864;30.464;2023-07-29T06:00:38;27.14;39.49
78366;HTU21D;67641;59.864;30.464;2023-07-29T06:03:07;27.12;40.81
78366;HTU21D;67641;59.864;30.464;2023-07-29T06:08:09;27.11;40.55
78366;HTU21D;67641;59.864;30.464;2023-07-29T06:10:36;27.10;40.39
78366;HTU21D;67641;59.864;30.464;2023-07-29T06:13:03;27.13;40.18
78366;HTU21D;67641;59.864;30.464;2023-07-29T06:15:29;27.17;40.80
78366;HTU21D;67641;59.864;30.464;2023-07-29T06:17:56;27.21;40.01
78366;HTU21D;67641;59.864;30.464;2023-07-29T06:20:22;27.23;40.10
78366;HTU21D;67641;59.864;30.464;2023-07-29T06:22:49;27.21;40.99
78366;HTU21D;67641;59.864;30.464;2023-07-29T06:25:15;27.24;40.52
78366;HTU21D;67641;59.864;30.464;2023-07-29T06:30:01;27.27;40.82
78366;HTU21D;67641;59.864;30.464;2023-07-29T06:32:27;27.25;42.33
78366;HTU21D;67641;59.864;30.464;2023-07-29T06:34:54;27.26;41.90
78366;HTU21D;67641;59.864;30.464;2023-07-29T06:37:20;27.34;42.27
78366;HTU21D;67641;59.864;30.464;2023-07-29T06:39:47;27.36;43.11
78366;HTU21D;67641;59.864;30.464;2023-07-29T06:42:14;27.38;43.11
78366;HTU21D;67641;59.864;30.464;2023-07-29T06:44:40;27.41;43.76
78366;HTU21D;67641;59.864;30.464;2023-07-29T06:47:06;27.43;43.58
78366;HTU21D;67641;59.864;30.464;2023-07-29T06:51:12;27.50;43.61
78366;HTU21D;67641;59.864;30.464;2023-07-29T06:53:38;27.47;43.60
78366;HTU21D;67641;59.864;30.464;2023-07-29T06:56:05;27.49;44.42
78366;HTU21D;67641;59.864;30.464;2023-07-29T06:58:31;27.50;44.07
78366;HTU21D;67641;59.864;30.464;2023-07-29T07:00:57;27.54;44.26
78366;HTU21D;67641;59.864;30.464;2023-07-29T07:03:24;27.53;44.09
78366;HTU21D;67641;59.864;30.464;2023-07-29T07:05:50;27.55;44.69
78366;HTU21D;67641;59.864;30.464;2023-07-29T07:08:17;27.57;44.58
78366;HTU21D;67641;59.864;30.464;2023-07-29T07:12:19;27.65;44.03
78366;HTU21D;67641;59.864;30.464;2023-07-29T07:14:46;27.69;43.97
78366;HTU21D;67641;59.864;30.464;2023-07-29T07:17:12;27.71;43.82
78366;HTU21D;67641;59.864;30.464;2023-07-29T07:19:39;27.74;44.34
78366;HTU21D;67641;59.864;30.464;2023-07-29T07:22:06;27.80;43.54
78366;HTU21D;67641;59.864;30.464;2023-07-29T07:24:32;27.84;43.39
78366;HTU21D;67641;59.864;30.464;2023-07-29T07:26:59;27.91;42.76
78366;HTU21D;67641;59.864;30.464;2023-07-29T07:29:26;27.94;43.19
78366;HTU21D;67641;59.864;30.464;2023-07-29T07:32:12;28.01;43.04
78366;HTU21D;67641;59.864;30.464;2023-07-29T07:34:38;28.02;42.44
78366;HTU21D;67641;59.864;30.464;2023-07-29T07:37:05;28.03;42.32
78366;HTU21D;67641;59.864;30.464;2023-07-29T07:39:31;28.06;42.61
78366;HTU21D;67641;59.864;30.464;2023-07-29T07:41:58;28.05;42.13
78366;HTU21D;67641;59.864;30.464;2023-07-29T07:44:24;28.08;42.85
78366;HTU21D;67641;59.864;30.464;2023-07-29T07:46:52;28.10;42.65
78366;HTU21D;67641;59.864;30.464;2023-07-29T07:49:19;28.12;43.15
78366;HTU21D;67641;59.864;30.464;2023-07-29T07:53:03;28.14;43.61
78366;HTU21D;67641;59.864;30.464;2023-07-29T07:55:30;28.20;43.94
78366;HTU21D;67641;59.864;30.464;2023-07-29T07:57:56;28.24;44.61
78366;HTU21D;67641;59.864;30.464;2023-07-29T08:00:23;28.27;44.93
78366;HTU21D;67641;59.864;30.464;2023-07-29T08:02:49;28.32;45.00
78366;HTU21D;67641;59.864;30.464;2023-07-29T08:05:16;28.31;45.22
78366;HTU21D;67641;59.864;30.464;2023-07-29T08:07:42;28.29;45.90
78366;HTU21D;67641;59.864;30.464;2023-07-29T08:10:10;28.31;45.83
78366;HTU21D;67641;59.864;30.464;2023-07-29T08:12:55;28.30;46.56
78366;HTU21D;67641;59.864;30.464;2023-07-29T08:15:21;28.28;46.76
78366;HTU21D;67641;59.864;30.464;2023-07-29T08:17:48;28.32;47.57
78366;HTU21D;67641;59.864;30.464;2023-07-29T08:20:14;28.31;46.70
78366;HTU21D;67641;59.864;30.464;2023-07-29T08:22:41;28.37;48.30
78366;HTU21D;67641;59.864;30.464;2023-07-29T08:25:07;28.45;48.76
78366;HTU21D;67641;59.864;30.464;2023-07-29T08:27:34;28.44;48.19
78366;HTU21D;67641;59.864;30.464;2023-07-29T08:30:01;28.48;48.47
78366;HTU21D;67641;59.864;30.464;2023-07-29T08:32:45;28.60;49.66
78366;HTU21D;67641;59.864;30.464;2023-07-29T08:35:12;28.63;48.95
78366;HTU21D;67641;59.864;30.464;2023-07-29T08:37:39;28.68;48.90
78366;HTU21D;67641;59.864;30.464;2023-07-29T08:40:06;28.73;49.85
78366;HTU21D;67641;59.864;30.464;2023-07-29T08:42:34;28.70;49.85
78366;HTU21D;67641;59.864;30.464;2023-07-29T08:45:07;28.72;48.44
78366;HTU21D;67641;59.864;30.464;2023-07-29T08:47:38;28.75;50.27
78366;HTU21D;67641;59.864;30.464;2023-07-29T08:52:37;28.80;50.42
78366;HTU21D;67641;59.864;30.464;2023-07-29T08:55:05;28.87;50.39
78366;HTU21D;67641;59.864;30.464;2023-07-29T08:57:32;28.88;50.18
78366;HTU21D;67641;59.864;30.464;2023-07-29T09:00:01;28.91;50.03
78366;HTU21D;67641;59.864;30.464;2023-07-29T09:02:28;28.92;50.45
78366;HTU21D;67641;59.864;30.464;2023-07-29T09:04:55;28.94;49.87
78366;HTU21D;67641;59.864;30.464;2023-07-29T09:07:23;28.98;49.73
78366;HTU21D;67641;59.864;30.464;2023-07-29T09:09:50;29.02;49.89
78366;HTU21D;67641;59.864;30.464;2023-07-29T09:13:14;29.01;49.67
78366;HTU21D;67641;59.864;30.464;2023-07-29T09:15:41;29.04;50.19
78366;HTU21D;67641;59.864;30.464;2023-07-29T09:18:17;29.09;50.20
78366;HTU21D;67641;59.864;30.464;2023-07-29T09:20:46;29.17;49.77
78366;HTU21D;67641;59.864;30.464;2023-07-29T09:23:13;29.23;49.79
78366;HTU21D;67641;59.864;30.464;2023-07-29T09:25:41;29.34;49.19
78366;HTU21D;67641;59.864;30.464;2023-07-29T09:28:10;29.39;49.57
78366;HTU21D;67641;59.864;30.464;2023-07-29T09:33:06;29.59;48.67
78366;HTU21D;67641;59.864;30.464;2023-07-29T09:35:35;29.71;48.86
78366;HTU21D;67641;59.864;30.464;2023-07-29T09:38:04;29.86;48.53
78366;HTU21D;67641;59.864;30.464;2023-07-29T09:40:38;29.93;48.50
78366;HTU21D;67641;59.864;30.464;2023-07-29T09:43:06;30.02;48.44
78366;HTU21D;67641;59.864;30.464;2023-07-29T09:45:35;30.15;48.20
78366;HTU21D;67641;59.864;30.464;2023-07-29T09:48:04;30.30;47.75
78366;HTU21D;67641;59.864;30.464;2023-07-29T09:53:08;30.47;47.86
78366;HTU21D;67641;59.864;30.464;2023-07-29T09:55:35;30.62;47.74
78366;HTU21D;67641;59.864;30.464;2023-07-29T09:58:02;30.78;46.93
78366;HTU21D;67641;59.864;30.464;2023-07-29T10:00:35;30.90;47.14
78366;HTU21D;67641;59.864;30.464;2023-07-29T10:03:02;30.89;47.19
78366;HTU21D;67641;59.864;30.464;2023-07-29T10:05:30;30.86;47.21
78366;HTU21D;67641;59.864;30.464;2023-07-29T10:07:57;31.00;47.53
78366;HTU21D;67641;59.864;30.464;2023-07-29T10:12:58;31.35;47.73
78366;HTU21D;67641;59.864;30.464;2023-07-29T10:15:26;31.43;47.79
78366;HTU21D;67641;59.864;30.464;2023-07-29T10:17:58;31.53;48.06
78366;HTU21D;67641;59.864;30.464;2023-07-29T10:20:30;31.71;47.25
78366;HTU21D;67641;59.864;30.464;2023-07-29T10:23:00;31.86;47.34
78366;HTU21D;67641;59.864;30.464;2023-07-29T10:25:38;31.92;47.37
78366;HTU21D;67641;59.864;30.464;2023-07-29T10:28:12;31.85;47.86
78366;HTU21D;67641;59.864;30.464;2023-07-29T10:33:05;32.09;47.66
78366;HTU21D;67641;59.864;30.464;2023-07-29T10:35:34;32.25;47.47
78366;HTU21D;67641;59.864;30.464;2023-07-29T10:38:02;32.37;47.08
78366;HTU21D;67641;59.864;30.464;2023-07-29T10:40:53;32.67;46.98
78366;HTU21D;67641;59.864;30.464;2023-07-29T10:43:35;32.87;45.93
78366;HTU21D;67641;59.864;30.464;2023-07-29T10:46:18;33.30;45.58
78366;HTU21D;67641;59.864;30.464;2023-07-29T10:51:42;33.97;44.06
78366;HTU21D;67641;59.864;30.464;2023-07-29T10:54:14;34.31;43.70
78366;HTU21D;67641;59.864;30.464;2023-07-29T10:56:57;34.74;42.77
78366;HTU21D;67641;59.864;30.464;2023-07-29T10:59:39;35.40;41.53
78366;HTU21D;67641;59.864;30.464;2023-07-29T11:02:21;36.07;39.83
78366;HTU21D;67641;59.864;30.464;2023-07-29T11:14:36;40.50;30.67
78366;HTU21D;67641;59.864;30.464;2023-07-29T11:20:04;41.33;28.60
78366;HTU21D;67641;59.864;30.464;2023-07-29T11:22:32;41.49;28.27
78366;HTU21D;67641;59.864;30.464;2023-07-29T11:25:00;40.31;29.76
78366;HTU21D;67641;59.864;30.464;2023-07-29T11:30:03;38.26;33.34
78366;HTU21D;67641;59.864;30.464;2023-07-29T11:32:36;37.67;34.27
78366;HTU21D;67641;59.864;30.464;2023-07-29T11:38:39;35.95;38.57
78366;HTU21D;67641;59.864;30.464;2023-07-29T11:41:07;38.54;33.12
78366;HTU21D;67641;59.864;30.464;2023-07-29T11:43:35;41.79;27.54
78366;HTU21D;67641;59.864;30.464;2023-07-29T11:46:03;44.26;24.21
78366;HTU21D;67641;59.864;30.464;2023-07-29T11:49:46;46.17;21.37
78366;HTU21D;67641;59.864;30.464;2023-07-29T11:52:13;47.50;19.51
78366;HTU21D;67641;59.864;30.464;2023-07-29T11:54:52;46.08;21.41
78366;HTU21D;67641;59.864;30.464;2023-07-29T11:57:20;45.02;23.05
78366;HTU21D;67641;59.864;30.464;2023-07-29T11:59:47;44.92;23.25
78366;HTU21D;67641;59.864;30.464;2023-07-29T12:02:18;45.40;22.47
78366;HTU21D;67641;59.864;30.464;2023-07-29T12:04:47;45.17;22.28
78366;HTU21D;67641;59.864;30.464;2023-07-29T12:11:26;44.40;22.85
78366;HTU21D;67641;59.864;30.464;2023-07-29T12:15:01;43.21;24.33
78366;HTU21D;67641;59.864;30.464;2023-07-29T12:20:20;41.79;27.22
78366;HTU21D;67641;59.864;30.464;2023-07-29T12:22:58;41.16;27.49
78366;HTU21D;67641;59.864;30.464;2023-07-29T12:25:40;40.76;28.74
78366;HTU21D;67641;59.864;30.464;2023-07-29T12:29:14;40.22;29.27
78366;HTU21D;67641;59.864;30.464;2023-07-29T12:34:22;39.42;30.44
78366;HTU21D;67641;59.864;30.464;2023-07-29T12:36:50;39.38;30.38
78366;HTU21D;67641;59.864;30.464;2023-07-29T12:39:28;39.33;30.09
78366;HTU21D;67641;59.864;30.464;2023-07-29T12:41:59;39.24;29.90
78366;HTU21D;67641;59.864;30.464;2023-07-29T12:44:37;39.17;31.22
78366;HTU21D;67641;59.864;30.464;2023-07-29T12:47:06;39.11;30.67
78366;HTU21D;67641;59.864;30.464;2023-07-29T12:51:36;38.95;30.10
78366;HTU21D;67641;59.864;30.464;2023-07-29T12:54:04;38.62;30.20
78366;HTU21D;67641;59.864;30.464;2023-07-29T12:56:32;38.14;30.90
78366;HTU21D;67641;59.864;30.464;2023-07-29T12:58:59;37.89;32.31
78366;HTU21D;67641;59.864;30.464;2023-07-29T13:01:27;37.81;32.09
78366;HTU21D;67641;59.864;30.464;2023-07-29T13:03:55;37.60;32.75
78366;HTU21D;67641;59.864;30.464;2023-07-29T13:54:35;37.30;38.30
78366;HTU21D;67641;59.864;30.464;2023-07-29T13:58:59;37.14;38.40
78366;HTU21D;67641;59.864;30.464;2023-07-29T14:01:26;37.02;39.30
78366;HTU21D;67641;59.864;30.464;2023-07-29T14:03:52;36.71;40.13
78366;HTU21D;67641;59.864;30.464;2023-07-29T14:06:19;36.63;40.60
78366;HTU21D;67641;59.864;30.464;2023-07-29T14:08:46;36.68;40.22
78366;HTU21D;67641;59.864;30.464;2023-07-29T14:11:13;36.81;39.94
78366;HTU21D;67641;59.864;30.464;2023-07-29T14:13:40;37.16;39.48
78366;HTU21D;67641;59.864;30.464;2023-07-29T14:16:07;37.14;39.20
78366;HTU21D;67641;59.864;30.464;2023-07-29T14:20:20;36.88;39.43
78366;HTU21D;67641;59.864;30.464;2023-07-29T14:22:47;36.71;39.93
78366;HTU21D;67641;59.864;30.464;2023-07-29T14:25:14;36.61;40.07
78366;HTU21D;67641;59.864;30.464;2023-07-29T14:27:41;36.61;40.04
78366;HTU21D;67641;59.864;30.464;2023-07-29T14:30:08;36.74;39.90
78366;HTU21D;67641;59.864;30.464;2023-07-29T14:32:35;36.91;39.46
78366;HTU21D;67641;59.864;30.464;2023-07-29T14:35:03;36.97;38.80
78366;HTU21D;67641;59.864;30.464;2023-07-29T14:37:30;36.77;39.17
78366;HTU21D;67641;59.864;30.464;2023-07-29T14:41:49;36.60;39.43
78366;HTU21D;67641;59.864;30.464;2023-07-29T14:44:16;36.43;39.68
78366;HTU21D;67641;59.864;30.464;2023-07-29T14:46:42;36.37;40.07
78366;HTU21D;67641;59.864;30.464;2023-07-29T14:49:09;36.41;40.06
78366;HTU21D;67641;59.864;30.464;2023-07-29T14:51:36;36.31;39.98
78366;HTU21D;67641;59.864;30.464;2023-07-29T14:54:03;36.21;40.20
78366;HTU21D;67641;59.864;30.464;2023-07-29T14:56:30;36.33;40.01
78366;HTU21D;67641;59.864;30.464;2023-07-29T14:58:57;36.40;39.68
78366;HTU21D;67641;59.864;30.464;2023-07-29T15:03:30;36.04;39.99
78366;HTU21D;67641;59.864;30.464;2023-07-29T15:05:57;35.93;40.02
78366;HTU21D;67641;59.864;30.464;2023-07-29T15:08:26;35.87;40.47
78366;HTU21D;67641;59.864;30.464;2023-07-29T15:10:53;35.78;40.36
78366;HTU21D;67641;59.864;30.464;2023-07-29T15:13:21;35.77;40.10
78366;HTU21D;67641;59.864;30.464;2023-07-29T15:15:48;35.77;39.94
78366;HTU21D;67641;59.864;30.464;2023-07-29T15:18:17;35.74;39.59
78366;HTU21D;67641;59.864;30.464;2023-07-29T15:23:05;35.34;40.42
78366;HTU21D;67641;59.864;30.464;2023-07-29T15:25:32;35.29;40.46
78366;HTU21D;67641;59.864;30.464;2023-07-29T15:27:59;35.18;40.82
78366;HTU21D;67641;59.864;30.464;2023-07-29T15:30:26;35.01;41.58
78366;HTU21D;67641;59.864;30.464;2023-07-29T15:32:52;35.05;41.52
78366;HTU21D;67641;59.864;30.464;2023-07-29T15:35:22;35.16;41.33
78366;HTU21D;67641;59.864;30.464;2023-07-29T15:37:48;35.21;41.22
78366;HTU21D;67641;59.864;30.464;2023-07-29T15:42:55;34.70;41.67
78366;HTU21D;67641;59.864;30.464;2023-07-29T15:45:24;34.40;42.37
78366;HTU21D;67641;59.864;30.464;2023-07-29T15:47:51;34.06;42.71
78366;HTU21D;67641;59.864;30.464;2023-07-29T15:50:21;33.75;43.85
78366;HTU21D;67641;59.864;30.464;2023-07-29T15:52:48;33.51;43.74
78366;HTU21D;67641;59.864;30.464;2023-07-29T15:55:15;33.37;44.35
78366;HTU21D;67641;59.864;30.464;2023-07-29T15:57:41;33.33;43.99
78366;HTU21D;67641;59.864;30.464;2023-07-29T16:03:01;33.16;44.30
78366;HTU21D;67641;59.864;30.464;2023-07-29T16:05:28;33.07;45.15
78366;HTU21D;67641;59.864;30.464;2023-07-29T16:07:55;32.99;45.31
78366;HTU21D;67641;59.864;30.464;2023-07-29T16:10:24;33.01;45.45
78366;HTU21D;67641;59.864;30.464;2023-07-29T16:12:50;32.93;45.72
78366;HTU21D;67641;59.864;30.464;2023-07-29T16:15:17;32.86;46.01
78366;HTU21D;67641;59.864;30.464;2023-07-29T16:17:44;32.83;45.90
78366;HTU21D;67641;59.864;30.464;2023-07-29T16:20:14;32.54;46.69
78366;HTU21D;67641;59.864;30.464;2023-07-29T16:23:21;32.28;47.45
78366;HTU21D;67641;59.864;30.464;2023-07-29T16:25:48;32.16;47.42
78366;HTU21D;67641;59.864;30.464;2023-07-29T16:28:15;32.01;47.89
78366;HTU21D;67641;59.864;30.464;2023-07-29T16:30:41;31.86;48.49
78366;HTU21D;67641;59.864;30.464;2023-07-29T16:33:08;31.86;48.69
78366;HTU21D;67641;59.864;30.464;2023-07-29T16:35:35;31.71;48.83
78366;HTU21D;67641;59.864;30.464;2023-07-29T16:38:03;31.53;49.31
78366;HTU21D;67641;59.864;30.464;2023-07-29T16:40:32;31.38;50.53
78366;HTU21D;67641;59.864;30.464;2023-07-29T16:43:14;31.34;51.21
78366;HTU21D;67641;59.864;30.464;2023-07-29T16:45:42;31.37;51.18
78366;HTU21D;67641;59.864;30.464;2023-07-29T16:48:09;31.43;51.13
78366;HTU21D;67641;59.864;30.464;2023-07-29T16:50:36;31.46;50.59
78366;HTU21D;67641;59.864;30.464;2023-07-29T16:53:03;31.44;50.05
78366;HTU21D;67641;59.864;30.464;2023-07-29T16:55:30;31.49;50.99
78366;HTU21D;67641;59.864;30.464;2023-07-29T16:57:57;31.51;50.35
78366;HTU21D;67641;59.864;30.464;2023-07-29T17:00:24;31.51;50.77
78366;HTU21D;67641;59.864;30.464;2023-07-29T17:04:04;31.51;50.72
78366;HTU21D;67641;59.864;30.464;2023-07-29T17:06:31;31.50;50.39
78366;HTU21D;67641;59.864;30.464;2023-07-29T17:08:58;31.44;50.54
78366;HTU21D;67641;59.864;30.464;2023-07-29T17:11:25;31.44;50.22
78366;HTU21D;67641;59.864;30.464;2023-07-29T17:13:51;31.40;50.46
78366;HTU21D;67641;59.864;30.464;2023-07-29T17:16:18;31.40;50.37
78366;HTU21D;67641;59.864;30.464;2023-07-29T17:18:45;31.34;50.29
78366;HTU21D;67641;59.864;30.464;2023-07-29T17:21:12;31.28;50.02
78366;HTU21D;67641;59.864;30.464;2023-07-29T17:25:39;31.16;50.30
78366;HTU21D;67641;59.864;30.464;2023-07-29T17:28:06;31.16;50.13
78366;HTU21D;67641;59.864;30.464;2023-07-29T17:30:33;31.15;50.50
78366;HTU21D;67641;59.864;30.464;2023-07-29T17:33:03;31.09;49.98
78366;HTU21D;67641;59.864;30.464;2023-07-29T17:35:30;31.05;50.21
78366;HTU21D;67641;59.864;30.464;2023-07-29T17:37:57;30.98;50.40
78366;HTU21D;67641;59.864;30.464;2023-07-29T17:40:24;30.98;50.43
78366;HTU21D;67641;59.864;30.464;2023-07-29T17:42:51;30.95;50.34
78366;HTU21D;67641;59.864;30.464;2023-07-29T17:45:29;30.89;50.51
78366;HTU21D;67641;59.864;30.464;2023-07-29T17:47:57;30.85;50.63
78366;HTU21D;67641;59.864;30.464;2023-07-29T17:50:24;30.81;51.08
78366;HTU21D;67641;59.864;30.464;2023-07-29T17:52:51;30.74;50.73
78366;HTU21D;67641;59.864;30.464;2023-07-29T17:55:25;30.72;50.88
78366;HTU21D;67641;59.864;30.464;2023-07-29T17:57:52;30.69;50.88